Argyll, United Kingdom
Current Conditions -  °F | °C
As of 4:20 AM on Sunday 26 Oct 2014 (Local Time) from EGPF Reporting Station
Broken Clouds Broken Clouds  
Wind Chill: 12°   Ceiling: 2100
Heat Index: 12°   Visibility: 6mi
Dew Point:   Wind: 21mph
Humidity: 82%   Direction: 220°SW
Pressure: 29.71"   Gusts: NA
Location:  56.05°N, 5.39°W
Report Text: EGPF 260320Z AUTO 22018KT 9999 BKN021/// //////TCU 12/09 Q1006
Loading
Personal Weather Stations






























Interactive Weather Map
Tropical Storm Tracking
New forecast layout! Learn more

10-Day Weather Forecast

Advertisements
Track Severe Weather on mobile